Toledo, Iowa
Current Conditions -  °F | °C
As of 3:53 AM on Wednesday 26 Nov 2014 (Local Time) from KMIW Reporting Station
Overcast Overcast  
Wind Chill: -9°   Ceiling: 6500
Heat Index: -3°   Visibility: 10mi
Dew Point: -7°   Wind: 12mph
Humidity: 78%   Direction: 130°SE
Pressure: 29.96"   Gusts: NA
Location:  42°N, 92.58°W
Report Text: KMIW 260953Z AUTO 13010KT 10SM BKN065 OVC080 M03/M07 A2996 RMK AO2 SLP157 T10331067
Loading
Personal Weather Stations






























Interactive Weather Map New forecast layout! Learn more

10-Day Weather Forecast

Advertisements
Track Severe Weather on mobile